sensor_id;sensor_type;location;lat;lon;timestamp;P1;durP1;ratioP1;P2;durP2;ratioP2
9106;SDS011;4589;48.690;8.952;2023-06-22T00:01:49;11.97;;;10.40;;
9106;SDS011;4589;48.690;8.952;2023-06-22T00:04:15;22.00;;;11.57;;
9106;SDS011;4589;48.690;8.952;2023-06-22T00:06:41;13.03;;;11.30;;
9106;SDS011;4589;48.690;8.952;2023-06-22T00:09:07;13.97;;;11.17;;
9106;SDS011;4589;48.690;8.952;2023-06-22T00:11:36;11.27;;;10.17;;
9106;SDS011;4589;48.690;8.952;2023-06-22T00:14:02;12.73;;;10.43;;
9106;SDS011;4589;48.690;8.952;2023-06-22T00:16:28;13.27;;;10.40;;
9106;SDS011;4589;48.690;8.952;2023-06-22T00:18:54;12.30;;;10.13;;
9106;SDS011;4589;48.690;8.952;2023-06-22T00:21:19;11.93;;;10.20;;
9106;SDS011;4589;48.690;8.952;2023-06-22T00:23:45;13.20;;;10.77;;
9106;SDS011;4589;48.690;8.952;2023-06-22T00:26:12;14.27;;;11.90;;
9106;SDS011;4589;48.690;8.952;2023-06-22T00:28:38;13.27;;;11.50;;
9106;SDS011;4589;48.690;8.952;2023-06-22T00:31:04;14.10;;;11.67;;
9106;SDS011;4589;48.690;8.952;2023-06-22T00:33:30;13.83;;;11.40;;
9106;SDS011;4589;48.690;8.952;2023-06-22T00:35:56;13.60;;;12.20;;
9106;SDS011;4589;48.690;8.952;2023-06-22T00:38:22;13.90;;;12.27;;
9106;SDS011;4589;48.690;8.952;2023-06-22T00:40:47;13.47;;;12.10;;
9106;SDS011;4589;48.690;8.952;2023-06-22T00:43:13;14.93;;;11.40;;
9106;SDS011;4589;48.690;8.952;2023-06-22T00:45:39;13.90;;;11.73;;
9106;SDS011;4589;48.690;8.952;2023-06-22T00:48:05;16.70;;;12.60;;
9106;SDS011;4589;48.690;8.952;2023-06-22T00:50:32;14.60;;;12.00;;
9106;SDS011;4589;48.690;8.952;2023-06-22T00:53:03;13.27;;;10.70;;
9106;SDS011;4589;48.690;8.952;2023-06-22T00:55:33;18.10;;;10.80;;
9106;SDS011;4589;48.690;8.952;2023-06-22T00:58:02;12.43;;;11.23;;
9106;SDS011;4589;48.690;8.952;2023-06-22T01:00:30;11.70;;;10.40;;
9106;SDS011;4589;48.690;8.952;2023-06-22T01:02:57;12.13;;;10.77;;
9106;SDS011;4589;48.690;8.952;2023-06-22T01:05:23;13.10;;;11.17;;
9106;SDS011;4589;48.690;8.952;2023-06-22T01:10:52;13.57;;;11.80;;
9106;SDS011;4589;48.690;8.952;2023-06-22T01:16:16;15.33;;;10.90;;
9106;SDS011;4589;48.690;8.952;2023-06-22T01:18:47;13.90;;;11.70;;
9106;SDS011;4589;48.690;8.952;2023-06-22T01:21:18;14.53;;;11.90;;
9106;SDS011;4589;48.690;8.952;2023-06-22T01:24:08;13.33;;;11.93;;
9106;SDS011;4589;48.690;8.952;2023-06-22T01:26:42;13.43;;;11.17;;
9106;SDS011;4589;48.690;8.952;2023-06-22T01:29:17;14.70;;;12.00;;
9106;SDS011;4589;48.690;8.952;2023-06-22T01:31:44;13.93;;;11.63;;
9106;SDS011;4589;48.690;8.952;2023-06-22T01:34:11;18.93;;;11.53;;
9106;SDS011;4589;48.690;8.952;2023-06-22T01:36:38;19.77;;;13.07;;
9106;SDS011;4589;48.690;8.952;2023-06-22T01:39:05;19.30;;;14.00;;
9106;SDS011;4589;48.690;8.952;2023-06-22T01:41:33;13.27;;;11.90;;
9106;SDS011;4589;48.690;8.952;2023-06-22T01:44:00;18.17;;;13.00;;
9106;SDS011;4589;48.690;8.952;2023-06-22T01:46:28;14.10;;;12.60;;
9106;SDS011;4589;48.690;8.952;2023-06-22T01:48:54;17.73;;;13.70;;
9106;SDS011;4589;48.690;8.952;2023-06-22T01:51:20;15.17;;;12.43;;
9106;SDS011;4589;48.690;8.952;2023-06-22T01:53:46;17.43;;;11.70;;
9106;SDS011;4589;48.690;8.952;2023-06-22T01:56:13;15.67;;;13.60;;
9106;SDS011;4589;48.690;8.952;2023-06-22T01:58:41;18.30;;;13.33;;
9106;SDS011;4589;48.690;8.952;2023-06-22T02:01:14;13.63;;;11.90;;
9106;SDS011;4589;48.690;8.952;2023-06-22T02:03:49;19.33;;;12.87;;
9106;SDS011;4589;48.690;8.952;2023-06-22T02:06:21;14.27;;;12.00;;
9106;SDS011;4589;48.690;8.952;2023-06-22T02:08:56;14.50;;;11.30;;
9106;SDS011;4589;48.690;8.952;2023-06-22T02:11:25;12.00;;;10.70;;
9106;SDS011;4589;48.690;8.952;2023-06-22T02:13:53;14.70;;;12.20;;
9106;SDS011;4589;48.690;8.952;2023-06-22T02:16:22;15.87;;;12.20;;
9106;SDS011;4589;48.690;8.952;2023-06-22T02:18:49;17.37;;;13.13;;
9106;SDS011;4589;48.690;8.952;2023-06-22T02:21:16;17.93;;;13.90;;
9106;SDS011;4589;48.690;8.952;2023-06-22T02:23:45;21.10;;;14.00;;
9106;SDS011;4589;48.690;8.952;2023-06-22T02:26:11;17.37;;;15.10;;
9106;SDS011;4589;48.690;8.952;2023-06-22T02:28:37;15.30;;;13.70;;
9106;SDS011;4589;48.690;8.952;2023-06-22T02:31:03;16.97;;;12.77;;
9106;SDS011;4589;48.690;8.952;2023-06-22T02:33:29;20.03;;;13.37;;
9106;SDS011;4589;48.690;8.952;2023-06-22T02:35:55;18.17;;;14.27;;
9106;SDS011;4589;48.690;8.952;2023-06-22T02:38:21;19.63;;;14.13;;
9106;SDS011;4589;48.690;8.952;2023-06-22T02:40:49;17.73;;;14.70;;
9106;SDS011;4589;48.690;8.952;2023-06-22T02:43:15;16.93;;;13.50;;
9106;SDS011;4589;48.690;8.952;2023-06-22T02:45:41;14.87;;;12.27;;
9106;SDS011;4589;48.690;8.952;2023-06-22T02:48:07;16.20;;;13.63;;
9106;SDS011;4589;48.690;8.952;2023-06-22T02:50:33;14.90;;;12.00;;
9106;SDS011;4589;48.690;8.952;2023-06-22T02:52:59;19.00;;;15.23;;
9106;SDS011;4589;48.690;8.952;2023-06-22T02:55:24;19.60;;;13.50;;
9106;SDS011;4589;48.690;8.952;2023-06-22T02:57:50;14.97;;;13.27;;
9106;SDS011;4589;48.690;8.952;2023-06-22T03:00:17;13.73;;;11.47;;
9106;SDS011;4589;48.690;8.952;2023-06-22T03:02:45;16.03;;;13.10;;
9106;SDS011;4589;48.690;8.952;2023-06-22T03:05:15;16.17;;;13.37;;
9106;SDS011;4589;48.690;8.952;2023-06-22T03:07:43;19.70;;;13.30;;
9106;SDS011;4589;48.690;8.952;2023-06-22T03:10:09;17.80;;;12.93;;
9106;SDS011;4589;48.690;8.952;2023-06-22T03:12:36;16.50;;;13.37;;
9106;SDS011;4589;48.690;8.952;2023-06-22T03:15:03;14.50;;;13.00;;
9106;SDS011;4589;48.690;8.952;2023-06-22T03:17:33;18.27;;;14.80;;
9106;SDS011;4589;48.690;8.952;2023-06-22T03:19:59;17.10;;;14.43;;
9106;SDS011;4589;48.690;8.952;2023-06-22T03:22:25;16.07;;;12.67;;
9106;SDS011;4589;48.690;8.952;2023-06-22T03:24:51;22.50;;;13.57;;
9106;SDS011;4589;48.690;8.952;2023-06-22T03:27:17;15.77;;;13.03;;
9106;SDS011;4589;48.690;8.952;2023-06-22T03:29:43;17.07;;;13.80;;
9106;SDS011;4589;48.690;8.952;2023-06-22T03:32:09;21.40;;;13.67;;
9106;SDS011;4589;48.690;8.952;2023-06-22T03:34:35;18.33;;;14.43;;
9106;SDS011;4589;48.690;8.952;2023-06-22T03:37:01;15.10;;;13.40;;
9106;SDS011;4589;48.690;8.952;2023-06-22T03:39:28;18.50;;;14.30;;
9106;SDS011;4589;48.690;8.952;2023-06-22T03:41:54;15.07;;;12.23;;
9106;SDS011;4589;48.690;8.952;2023-06-22T03:44:19;19.23;;;14.00;;
9106;SDS011;4589;48.690;8.952;2023-06-22T03:46:45;23.97;;;15.13;;
9106;SDS011;4589;48.690;8.952;2023-06-22T03:49:11;17.40;;;14.27;;
9106;SDS011;4589;48.690;8.952;2023-06-22T03:51:37;16.20;;;14.20;;
9106;SDS011;4589;48.690;8.952;2023-06-22T03:54:02;20.93;;;16.13;;
9106;SDS011;4589;48.690;8.952;2023-06-22T03:56:28;19.77;;;15.00;;
9106;SDS011;4589;48.690;8.952;2023-06-22T03:58:54;24.80;;;14.77;;
9106;SDS011;4589;48.690;8.952;2023-06-22T04:01:19;17.60;;;14.03;;
9106;SDS011;4589;48.690;8.952;2023-06-22T04:03:45;16.80;;;14.03;;
9106;SDS011;4589;48.690;8.952;2023-06-22T04:06:13;20.70;;;14.27;;
9106;SDS011;4589;48.690;8.952;2023-06-22T04:08:39;19.80;;;15.07;;
9106;SDS011;4589;48.690;8.952;2023-06-22T04:11:06;22.40;;;15.00;;
9106;SDS011;4589;48.690;8.952;2023-06-22T04:13:31;23.33;;;14.97;;
9106;SDS011;4589;48.690;8.952;2023-06-22T04:15:57;17.70;;;14.60;;
9106;SDS011;4589;48.690;8.952;2023-06-22T04:18:23;16.43;;;14.50;;
9106;SDS011;4589;48.690;8.952;2023-06-22T04:20:48;19.47;;;14.70;;
9106;SDS011;4589;48.690;8.952;2023-06-22T04:23:14;16.80;;;13.33;;
9106;SDS011;4589;48.690;8.952;2023-06-22T04:25:40;19.47;;;15.90;;
9106;SDS011;4589;48.690;8.952;2023-06-22T04:28:05;21.30;;;14.00;;
9106;SDS011;4589;48.690;8.952;2023-06-22T04:30:32;21.43;;;14.50;;
9106;SDS011;4589;48.690;8.952;2023-06-22T04:32:58;18.40;;;14.30;;
9106;SDS011;4589;48.690;8.952;2023-06-22T04:35:24;19.63;;;16.43;;
9106;SDS011;4589;48.690;8.952;2023-06-22T04:37:50;21.90;;;16.57;;
9106;SDS011;4589;48.690;8.952;2023-06-22T04:40:20;20.40;;;15.40;;
9106;SDS011;4589;48.690;8.952;2023-06-22T04:42:47;20.57;;;15.50;;
9106;SDS011;4589;48.690;8.952;2023-06-22T04:45:18;18.27;;;14.77;;
9106;SDS011;4589;48.690;8.952;2023-06-22T04:47:44;17.47;;;14.77;;
9106;SDS011;4589;48.690;8.952;2023-06-22T04:50:14;16.87;;;14.17;;
9106;SDS011;4589;48.690;8.952;2023-06-22T04:52:40;16.50;;;13.10;;
9106;SDS011;4589;48.690;8.952;2023-06-22T04:55:05;16.93;;;12.97;;
9106;SDS011;4589;48.690;8.952;2023-06-22T04:57:31;19.17;;;13.67;;
9106;SDS011;4589;48.690;8.952;2023-06-22T04:59:58;17.40;;;14.20;;
9106;SDS011;4589;48.690;8.952;2023-06-22T05:02:36;15.13;;;13.53;;
9106;SDS011;4589;48.690;8.952;2023-06-22T05:05:02;20.50;;;14.60;;
9106;SDS011;4589;48.690;8.952;2023-06-22T05:07:32;26.93;;;13.57;;
9106;SDS011;4589;48.690;8.952;2023-06-22T05:10:01;18.20;;;13.60;;
9106;SDS011;4589;48.690;8.952;2023-06-22T05:12:28;15.03;;;13.40;;
9106;SDS011;4589;48.690;8.952;2023-06-22T05:14:54;20.47;;;14.17;;
9106;SDS011;4589;48.690;8.952;2023-06-22T05:17:20;15.27;;;13.37;;
9106;SDS011;4589;48.690;8.952;2023-06-22T05:19:46;17.07;;;13.37;;
9106;SDS011;4589;48.690;8.952;2023-06-22T05:22:15;15.57;;;13.40;;
9106;SDS011;4589;48.690;8.952;2023-06-22T05:24:41;18.17;;;12.20;;
9106;SDS011;4589;48.690;8.952;2023-06-22T05:27:07;16.23;;;13.40;;
9106;SDS011;4589;48.690;8.952;2023-06-22T05:29:33;13.70;;;12.20;;
9106;SDS011;4589;48.690;8.952;2023-06-22T05:31:59;14.90;;;11.60;;
9106;SDS011;4589;48.690;8.952;2023-06-22T05:34:24;14.17;;;10.50;;
9106;SDS011;4589;48.690;8.952;2023-06-22T05:36:50;11.17;;;9.53;;
9106;SDS011;4589;48.690;8.952;2023-06-22T05:39:16;12.23;;;10.67;;
9106;SDS011;4589;48.690;8.952;2023-06-22T05:41:42;10.77;;;9.67;;
9106;SDS011;4589;48.690;8.952;2023-06-22T05:44:10;14.37;;;10.03;;
9106;SDS011;4589;48.690;8.952;2023-06-22T05:46:36;11.47;;;9.70;;
9106;SDS011;4589;48.690;8.952;2023-06-22T05:49:05;12.43;;;8.30;;
9106;SDS011;4589;48.690;8.952;2023-06-22T05:51:31;10.50;;;8.13;;
9106;SDS011;4589;48.690;8.952;2023-06-22T05:53:56;8.13;;;7.30;;
9106;SDS011;4589;48.690;8.952;2023-06-22T05:56:22;10.17;;;7.23;;
9106;SDS011;4589;48.690;8.952;2023-06-22T05:58:48;8.67;;;6.83;;
9106;SDS011;4589;48.690;8.952;2023-06-22T06:01:13;10.77;;;9.60;;
9106;SDS011;4589;48.690;8.952;2023-06-22T06:03:40;9.70;;;8.10;;
9106;SDS011;4589;48.690;8.952;2023-06-22T06:06:06;8.33;;;7.53;;
9106;SDS011;4589;48.690;8.952;2023-06-22T06:08:32;9.30;;;6.37;;
9106;SDS011;4589;48.690;8.952;2023-06-22T06:10:58;8.63;;;6.70;;
9106;SDS011;4589;48.690;8.952;2023-06-22T06:13:24;12.13;;;8.30;;
9106;SDS011;4589;48.690;8.952;2023-06-22T06:15:49;10.30;;;6.73;;
9106;SDS011;4589;48.690;8.952;2023-06-22T06:18:20;11.10;;;6.17;;
9106;SDS011;4589;48.690;8.952;2023-06-22T06:20:45;7.13;;;5.70;;
9106;SDS011;4589;48.690;8.952;2023-06-22T06:23:11;6.53;;;5.87;;
9106;SDS011;4589;48.690;8.952;2023-06-22T06:25:36;8.37;;;5.60;;
9106;SDS011;4589;48.690;8.952;2023-06-22T06:28:02;5.83;;;5.30;;
9106;SDS011;4589;48.690;8.952;2023-06-22T06:30:28;10.07;;;5.70;;
9106;SDS011;4589;48.690;8.952;2023-06-22T06:32:54;6.03;;;5.00;;
9106;SDS011;4589;48.690;8.952;2023-06-22T06:35:20;6.60;;;5.20;;
9106;SDS011;4589;48.690;8.952;2023-06-22T06:37:48;6.07;;;5.47;;
9106;SDS011;4589;48.690;8.952;2023-06-22T06:40:15;6.03;;;5.10;;
9106;SDS011;4589;48.690;8.952;2023-06-22T06:42:43;4.87;;;4.30;;
9106;SDS011;4589;48.690;8.952;2023-06-22T06:45:11;6.53;;;4.70;;
9106;SDS011;4589;48.690;8.952;2023-06-22T06:47:37;6.20;;;4.60;;
9106;SDS011;4589;48.690;8.952;2023-06-22T06:50:04;5.90;;;5.23;;
9106;SDS011;4589;48.690;8.952;2023-06-22T06:52:30;7.90;;;5.07;;
9106;SDS011;4589;48.690;8.952;2023-06-22T06:54:55;6.57;;;5.17;;
9106;SDS011;4589;48.690;8.952;2023-06-22T06:57:21;6.63;;;5.20;;
9106;SDS011;4589;48.690;8.952;2023-06-22T06:59:47;8.90;;;4.77;;
9106;SDS011;4589;48.690;8.952;2023-06-22T07:02:14;7.40;;;5.57;;
9106;SDS011;4589;48.690;8.952;2023-06-22T07:04:40;6.63;;;5.30;;
9106;SDS011;4589;48.690;8.952;2023-06-22T07:07:06;8.53;;;5.07;;
9106;SDS011;4589;48.690;8.952;2023-06-22T07:09:32;5.30;;;4.77;;
9106;SDS011;4589;48.690;8.952;2023-06-22T07:11:57;7.93;;;5.70;;
9106;SDS011;4589;48.690;8.952;2023-06-22T07:14:23;9.47;;;6.43;;
9106;SDS011;4589;48.690;8.952;2023-06-22T07:16:49;6.30;;;5.00;;
9106;SDS011;4589;48.690;8.952;2023-06-22T07:19:14;5.77;;;4.60;;
9106;SDS011;4589;48.690;8.952;2023-06-22T07:21:40;5.97;;;4.97;;
9106;SDS011;4589;48.690;8.952;2023-06-22T07:24:06;5.90;;;4.47;;
9106;SDS011;4589;48.690;8.952;2023-06-22T07:26:32;6.50;;;4.80;;
9106;SDS011;4589;48.690;8.952;2023-06-22T07:28:58;9.23;;;4.90;;
9106;SDS011;4589;48.690;8.952;2023-06-22T07:31:24;5.57;;;4.83;;
9106;SDS011;4589;48.690;8.952;2023-06-22T07:33:50;5.23;;;4.63;;
9106;SDS011;4589;48.690;8.952;2023-06-22T07:36:16;6.77;;;5.87;;
9106;SDS011;4589;48.690;8.952;2023-06-22T07:38:42;12.33;;;5.50;;
9106;SDS011;4589;48.690;8.952;2023-06-22T07:41:08;7.17;;;5.20;;
9106;SDS011;4589;48.690;8.952;2023-06-22T07:43:33;6.60;;;5.10;;
9106;SDS011;4589;48.690;8.952;2023-06-22T07:46:02;5.80;;;4.87;;
9106;SDS011;4589;48.690;8.952;2023-06-22T07:48:30;5.37;;;4.60;;
9106;SDS011;4589;48.690;8.952;2023-06-22T07:50:56;8.70;;;5.37;;
9106;SDS011;4589;48.690;8.952;2023-06-22T07:53:22;6.80;;;5.27;;
9106;SDS011;4589;48.690;8.952;2023-06-22T07:55:48;6.50;;;5.00;;
9106;SDS011;4589;48.690;8.952;2023-06-22T07:58:14;13.73;;;5.20;;
9106;SDS011;4589;48.690;8.952;2023-06-22T08:00:40;7.03;;;4.80;;
9106;SDS011;4589;48.690;8.952;2023-06-22T08:03:06;7.03;;;5.10;;
9106;SDS011;4589;48.690;8.952;2023-06-22T08:05:32;9.23;;;4.90;;
9106;SDS011;4589;48.690;8.952;2023-06-22T08:07:57;7.07;;;5.17;;
9106;SDS011;4589;48.690;8.952;2023-06-22T08:10:23;7.00;;;4.70;;
9106;SDS011;4589;48.690;8.952;2023-06-22T08:12:49;6.20;;;5.47;;
9106;SDS011;4589;48.690;8.952;2023-06-22T08:15:15;6.90;;;5.47;;
9106;SDS011;4589;48.690;8.952;2023-06-22T08:17:40;8.63;;;5.50;;
9106;SDS011;4589;48.690;8.952;2023-06-22T08:20:06;6.77;;;5.30;;
9106;SDS011;4589;48.690;8.952;2023-06-22T08:22:35;6.90;;;5.50;;
9106;SDS011;4589;48.690;8.952;2023-06-22T08:25:01;6.10;;;4.97;;
9106;SDS011;4589;48.690;8.952;2023-06-22T08:27:28;6.50;;;5.50;;
9106;SDS011;4589;48.690;8.952;2023-06-22T08:29:57;9.83;;;5.93;;
9106;SDS011;4589;48.690;8.952;2023-06-22T08:32:24;7.37;;;4.90;;
9106;SDS011;4589;48.690;8.952;2023-06-22T08:34:52;7.37;;;5.33;;
9106;SDS011;4589;48.690;8.952;2023-06-22T08:37:19;7.50;;;5.30;;
9106;SDS011;4589;48.690;8.952;2023-06-22T08:39:44;6.80;;;4.57;;
9106;SDS011;4589;48.690;8.952;2023-06-22T08:42:11;6.33;;;4.90;;
9106;SDS011;4589;48.690;8.952;2023-06-22T08:44:37;11.00;;;6.10;;
9106;SDS011;4589;48.690;8.952;2023-06-22T08:47:02;7.07;;;5.43;;
9106;SDS011;4589;48.690;8.952;2023-06-22T08:49:28;7.27;;;5.90;;
9106;SDS011;4589;48.690;8.952;2023-06-22T08:51:54;6.60;;;5.60;;
9106;SDS011;4589;48.690;8.952;2023-06-22T08:54:21;12.67;;;5.80;;
9106;SDS011;4589;48.690;8.952;2023-06-22T08:56:47;11.50;;;5.47;;
9106;SDS011;4589;48.690;8.952;2023-06-22T08:59:13;7.07;;;5.50;;
9106;SDS011;4589;48.690;8.952;2023-06-22T09:01:38;6.53;;;4.90;;
9106;SDS011;4589;48.690;8.952;2023-06-22T09:04:04;7.77;;;5.13;;
9106;SDS011;4589;48.690;8.952;2023-06-22T09:06:31;10.17;;;5.20;;
9106;SDS011;4589;48.690;8.952;2023-06-22T09:08:57;6.80;;;5.10;;
9106;SDS011;4589;48.690;8.952;2023-06-22T09:11:24;9.20;;;5.23;;
9106;SDS011;4589;48.690;8.952;2023-06-22T09:13:50;11.67;;;4.70;;
9106;SDS011;4589;48.690;8.952;2023-06-22T09:16:17;6.20;;;4.93;;
9106;SDS011;4589;48.690;8.952;2023-06-22T09:18:42;9.63;;;4.77;;
9106;SDS011;4589;48.690;8.952;2023-06-22T09:21:11;5.43;;;4.73;;
9106;SDS011;4589;48.690;8.952;2023-06-22T09:23:37;5.80;;;5.17;;
9106;SDS011;4589;48.690;8.952;2023-06-22T09:26:02;7.00;;;5.23;;
9106;SDS011;4589;48.690;8.952;2023-06-22T09:28:29;7.87;;;4.80;;
9106;SDS011;4589;48.690;8.952;2023-06-22T09:30:54;6.60;;;4.70;;
9106;SDS011;4589;48.690;8.952;2023-06-22T09:33:24;11.67;;;5.80;;
9106;SDS011;4589;48.690;8.952;2023-06-22T09:35:53;8.70;;;4.87;;
9106;SDS011;4589;48.690;8.952;2023-06-22T09:38:18;7.03;;;4.73;;
9106;SDS011;4589;48.690;8.952;2023-06-22T09:40:44;10.20;;;5.50;;
9106;SDS011;4589;48.690;8.952;2023-06-22T09:43:09;7.47;;;5.33;;
9106;SDS011;4589;48.690;8.952;2023-06-22T09:45:39;6.10;;;4.73;;
9106;SDS011;4589;48.690;8.952;2023-06-22T09:48:08;9.10;;;5.53;;
9106;SDS011;4589;48.690;8.952;2023-06-22T09:50:34;11.63;;;5.90;;
9106;SDS011;4589;48.690;8.952;2023-06-22T09:53:01;6.17;;;5.10;;
9106;SDS011;4589;48.690;8.952;2023-06-22T09:55:26;7.03;;;4.90;;
9106;SDS011;4589;48.690;8.952;2023-06-22T09:57:52;8.77;;;5.50;;
9106;SDS011;4589;48.690;8.952;2023-06-22T10:00:19;12.03;;;5.20;;
9106;SDS011;4589;48.690;8.952;2023-06-22T10:02:46;7.00;;;5.40;;
9106;SDS011;4589;48.690;8.952;2023-06-22T10:05:12;8.80;;;5.97;;
9106;SDS011;4589;48.690;8.952;2023-06-22T10:07:38;9.50;;;6.10;;
9106;SDS011;4589;48.690;8.952;2023-06-22T10:10:07;7.73;;;5.60;;
9106;SDS011;4589;48.690;8.952;2023-06-22T10:12:33;8.47;;;5.47;;
9106;SDS011;4589;48.690;8.952;2023-06-22T10:14:59;7.27;;;5.67;;
9106;SDS011;4589;48.690;8.952;2023-06-22T10:17:24;9.90;;;5.37;;
9106;SDS011;4589;48.690;8.952;2023-06-22T10:19:50;12.00;;;5.60;;
9106;SDS011;4589;48.690;8.952;2023-06-22T10:22:16;10.13;;;5.40;;
9106;SDS011;4589;48.690;8.952;2023-06-22T10:24:42;7.43;;;5.90;;
9106;SDS011;4589;48.690;8.952;2023-06-22T10:27:12;9.63;;;4.63;;
9106;SDS011;4589;48.690;8.952;2023-06-22T10:29:38;7.13;;;5.13;;
9106;SDS011;4589;48.690;8.952;2023-06-22T10:32:04;11.13;;;6.43;;
9106;SDS011;4589;48.690;8.952;2023-06-22T10:34:30;8.30;;;6.40;;
9106;SDS011;4589;48.690;8.952;2023-06-22T10:36:56;7.17;;;4.50;;
9106;SDS011;4589;48.690;8.952;2023-06-22T10:39:21;8.13;;;5.60;;
9106;SDS011;4589;48.690;8.952;2023-06-22T10:41:47;7.47;;;5.30;;
9106;SDS011;4589;48.690;8.952;2023-06-22T10:44:12;8.13;;;4.83;;
9106;SDS011;4589;48.690;8.952;2023-06-22T10:46:38;7.60;;;4.83;;
9106;SDS011;4589;48.690;8.952;2023-06-22T10:49:04;9.90;;;5.03;;
9106;SDS011;4589;48.690;8.952;2023-06-22T10:51:30;8.93;;;5.60;;
9106;SDS011;4589;48.690;8.952;2023-06-22T10:53:57;9.07;;;5.87;;
9106;SDS011;4589;48.690;8.952;2023-06-22T10:56:22;14.50;;;6.20;;
9106;SDS011;4589;48.690;8.952;2023-06-22T10:58:48;15.10;;;5.77;;
9106;SDS011;4589;48.690;8.952;2023-06-22T11:01:13;5.87;;;4.60;;
9106;SDS011;4589;48.690;8.952;2023-06-22T11:03:39;6.70;;;5.13;;
9106;SDS011;4589;48.690;8.952;2023-06-22T11:06:05;9.97;;;5.17;;
9106;SDS011;4589;48.690;8.952;2023-06-22T11:08:31;9.50;;;6.00;;
9106;SDS011;4589;48.690;8.952;2023-06-22T11:10:56;6.20;;;4.80;;
9106;SDS011;4589;48.690;8.952;2023-06-22T11:13:22;6.50;;;4.87;;
9106;SDS011;4589;48.690;8.952;2023-06-22T11:15:47;7.27;;;5.20;;
9106;SDS011;4589;48.690;8.952;2023-06-22T11:18:13;12.00;;;5.67;;
9106;SDS011;4589;48.690;8.952;2023-06-22T11:20:38;6.33;;;5.30;;
9106;SDS011;4589;48.690;8.952;2023-06-22T11:23:05;5.77;;;5.20;;
9106;SDS011;4589;48.690;8.952;2023-06-22T11:25:31;8.07;;;5.23;;
9106;SDS011;4589;48.690;8.952;2023-06-22T11:27:59;7.03;;;4.73;;
9106;SDS011;4589;48.690;8.952;2023-06-22T11:30:28;8.70;;;5.40;;
9106;SDS011;4589;48.690;8.952;2023-06-22T11:32:53;7.43;;;5.10;;
9106;SDS011;4589;48.690;8.952;2023-06-22T11:35:19;7.90;;;4.77;;
9106;SDS011;4589;48.690;8.952;2023-06-22T11:37:45;9.40;;;6.50;;
9106;SDS011;4589;48.690;8.952;2023-06-22T11:40:10;9.80;;;6.00;;
9106;SDS011;4589;48.690;8.952;2023-06-22T11:42:36;7.57;;;5.13;;
9106;SDS011;4589;48.690;8.952;2023-06-22T11:45:04;9.93;;;5.50;;
9106;SDS011;4589;48.690;8.952;2023-06-22T11:47:30;9.47;;;5.70;;
9106;SDS011;4589;48.690;8.952;2023-06-22T11:49:55;9.97;;;6.43;;
9106;SDS011;4589;48.690;8.952;2023-06-22T11:52:21;6.97;;;5.27;;
9106;SDS011;4589;48.690;8.952;2023-06-22T11:54:47;8.10;;;5.33;;
9106;SDS011;4589;48.690;8.952;2023-06-22T11:57:12;11.87;;;6.10;;
9106;SDS011;4589;48.690;8.952;2023-06-22T11:59:38;8.43;;;6.13;;
9106;SDS011;4589;48.690;8.952;2023-06-22T12:02:04;10.57;;;5.40;;
9106;SDS011;4589;48.690;8.952;2023-06-22T12:04:32;8.17;;;6.07;;
9106;SDS011;4589;48.690;8.952;2023-06-22T12:06:58;7.63;;;5.40;;
9106;SDS011;4589;48.690;8.952;2023-06-22T12:09:23;9.10;;;5.57;;
9106;SDS011;4589;48.690;8.952;2023-06-22T12:11:49;11.00;;;5.63;;
9106;SDS011;4589;48.690;8.952;2023-06-22T12:14:15;13.30;;;6.33;;
9106;SDS011;4589;48.690;8.952;2023-06-22T12:16:40;8.37;;;5.20;;
9106;SDS011;4589;48.690;8.952;2023-06-22T12:19:07;11.40;;;6.47;;
9106;SDS011;4589;48.690;8.952;2023-06-22T12:21:32;18.07;;;5.90;;
9106;SDS011;4589;48.690;8.952;2023-06-22T12:23:58;15.60;;;6.80;;
9106;SDS011;4589;48.690;8.952;2023-06-22T12:26:23;9.80;;;5.60;;
9106;SDS011;4589;48.690;8.952;2023-06-22T12:28:49;5.93;;;5.33;;
9106;SDS011;4589;48.690;8.952;2023-06-22T12:31:15;8.30;;;5.90;;
9106;SDS011;4589;48.690;8.952;2023-06-22T12:33:41;9.70;;;5.47;;
9106;SDS011;4589;48.690;8.952;2023-06-22T12:36:06;14.33;;;6.27;;
9106;SDS011;4589;48.690;8.952;2023-06-22T12:38:32;7.27;;;5.77;;
9106;SDS011;4589;48.690;8.952;2023-06-22T12:40:58;13.67;;;6.10;;
9106;SDS011;4589;48.690;8.952;2023-06-22T12:43:24;12.07;;;6.37;;
9106;SDS011;4589;48.690;8.952;2023-06-22T12:45:50;9.93;;;7.03;;
9106;SDS011;4589;48.690;8.952;2023-06-22T12:48:16;7.70;;;6.50;;
9106;SDS011;4589;48.690;8.952;2023-06-22T12:50:42;13.07;;;7.70;;
9106;SDS011;4589;48.690;8.952;2023-06-22T12:53:07;9.23;;;7.00;;
9106;SDS011;4589;48.690;8.952;2023-06-22T12:55:33;13.50;;;7.40;;
9106;SDS011;4589;48.690;8.952;2023-06-22T12:57:59;9.67;;;6.77;;
9106;SDS011;4589;48.690;8.952;2023-06-22T13:00:25;9.27;;;5.47;;
9106;SDS011;4589;48.690;8.952;2023-06-22T13:02:50;11.57;;;6.33;;
9106;SDS011;4589;48.690;8.952;2023-06-22T13:05:16;12.57;;;5.93;;
9106;SDS011;4589;48.690;8.952;2023-06-22T13:07:42;8.43;;;6.37;;
9106;SDS011;4589;48.690;8.952;2023-06-22T13:10:08;11.10;;;5.90;;
9106;SDS011;4589;48.690;8.952;2023-06-22T13:12:34;10.47;;;5.70;;
9106;SDS011;4589;48.690;8.952;2023-06-22T13:14:59;9.53;;;5.37;;
9106;SDS011;4589;48.690;8.952;2023-06-22T13:17:25;15.17;;;6.33;;
9106;SDS011;4589;48.690;8.952;2023-06-22T13:19:50;12.77;;;5.80;;
9106;SDS011;4589;48.690;8.952;2023-06-22T13:25:11;19.07;;;6.10;;
9106;SDS011;4589;48.690;8.952;2023-06-22T13:27:37;8.97;;;5.30;;
9106;SDS011;4589;48.690;8.952;2023-06-22T13:30:06;11.10;;;5.37;;
9106;SDS011;4589;48.690;8.952;2023-06-22T13:32:33;8.57;;;5.73;;
9106;SDS011;4589;48.690;8.952;2023-06-22T13:34:58;12.40;;;6.03;;
9106;SDS011;4589;48.690;8.952;2023-06-22T13:37:25;12.60;;;6.30;;
9106;SDS011;4589;48.690;8.952;2023-06-22T13:39:50;18.17;;;6.20;;
9106;SDS011;4589;48.690;8.952;2023-06-22T13:42:16;18.47;;;6.07;;
9106;SDS011;4589;48.690;8.952;2023-06-22T13:44:41;13.07;;;5.00;;
9106;SDS011;4589;48.690;8.952;2023-06-22T13:47:07;7.80;;;5.70;;
9106;SDS011;4589;48.690;8.952;2023-06-22T13:49:33;13.20;;;5.53;;
9106;SDS011;4589;48.690;8.952;2023-06-22T13:51:59;13.23;;;6.13;;
9106;SDS011;4589;48.690;8.952;2023-06-22T13:54:24;10.10;;;5.83;;
9106;SDS011;4589;48.690;8.952;2023-06-22T13:56:50;12.87;;;5.87;;
9106;SDS011;4589;48.690;8.952;2023-06-22T13:59:15;12.63;;;5.77;;
9106;SDS011;4589;48.690;8.952;2023-06-22T14:01:41;8.03;;;5.40;;
9106;SDS011;4589;48.690;8.952;2023-06-22T14:04:08;10.00;;;5.70;;
9106;SDS011;4589;48.690;8.952;2023-06-22T14:06:33;5.87;;;4.83;;
9106;SDS011;4589;48.690;8.952;2023-06-22T14:08:59;7.37;;;4.60;;
9106;SDS011;4589;48.690;8.952;2023-06-22T14:11:25;17.27;;;5.30;;
9106;SDS011;4589;48.690;8.952;2023-06-22T14:13:50;9.97;;;4.97;;
9106;SDS011;4589;48.690;8.952;2023-06-22T14:16:16;8.60;;;5.20;;
9106;SDS011;4589;48.690;8.952;2023-06-22T14:18:42;10.47;;;4.50;;
9106;SDS011;4589;48.690;8.952;2023-06-22T14:21:07;9.10;;;3.93;;
9106;SDS011;4589;48.690;8.952;2023-06-22T14:23:33;11.40;;;3.77;;
9106;SDS011;4589;48.690;8.952;2023-06-22T14:26:00;9.10;;;5.13;;
9106;SDS011;4589;48.690;8.952;2023-06-22T14:28:26;15.03;;;3.83;;
9106;SDS011;4589;48.690;8.952;2023-06-22T14:30:51;7.40;;;3.57;;
9106;SDS011;4589;48.690;8.952;2023-06-22T14:33:17;5.80;;;3.37;;
9106;SDS011;4589;48.690;8.952;2023-06-22T14:35:43;7.73;;;3.80;;
9106;SDS011;4589;48.690;8.952;2023-06-22T14:38:08;17.73;;;3.90;;
9106;SDS011;4589;48.690;8.952;2023-06-22T14:40:34;8.60;;;3.30;;
9106;SDS011;4589;48.690;8.952;2023-06-22T14:42:59;12.03;;;4.00;;
9106;SDS011;4589;48.690;8.952;2023-06-22T14:45:25;6.63;;;3.90;;
9106;SDS011;4589;48.690;8.952;2023-06-22T14:47:50;10.43;;;3.83;;
9106;SDS011;4589;48.690;8.952;2023-06-22T14:50:17;11.40;;;3.60;;
9106;SDS011;4589;48.690;8.952;2023-06-22T14:52:43;7.40;;;3.43;;
9106;SDS011;4589;48.690;8.952;2023-06-22T14:55:09;13.53;;;3.77;;
9106;SDS011;4589;48.690;8.952;2023-06-22T14:57:35;7.73;;;2.90;;
9106;SDS011;4589;48.690;8.952;2023-06-22T15:00:00;7.30;;;3.03;;
9106;SDS011;4589;48.690;8.952;2023-06-22T15:02:27;8.00;;;3.57;;
9106;SDS011;4589;48.690;8.952;2023-06-22T15:04:53;6.30;;;3.40;;
9106;SDS011;4589;48.690;8.952;2023-06-22T15:07:19;8.30;;;3.40;;